createdAt,value
2022-08-20T00:00:38.318Z,99098.8
2022-08-20T00:06:13.384Z,99098.7
2022-08-20T00:11:49.031Z,99092.3
2022-08-20T00:17:23.899Z,99096.5
2022-08-20T00:22:58.840Z,99094.3
2022-08-20T00:28:33.882Z,99084.7
2022-08-20T00:34:08.621Z,99082.1
2022-08-20T00:39:43.738Z,99077.7
2022-08-20T00:45:19.315Z,99069.6
2022-08-20T00:50:54.095Z,99068.1
2022-08-20T00:56:33.860Z,99063.5
2022-08-20T01:02:09.028Z,99065.1
2022-08-20T01:07:44.987Z,99060.1
2022-08-20T01:13:20.770Z,99059.2
2022-08-20T01:18:56.486Z,99058.2
2022-08-20T01:24:31.567Z,99057.7
2022-08-20T01:30:08.276Z,99055.8
2022-08-20T01:35:43.658Z,99058.1
2022-08-20T01:41:29.330Z,99063.4
2022-08-20T01:47:04.251Z,99064.4
2022-08-20T01:52:39.726Z,99061.5
2022-08-20T01:58:14.475Z,99058.8
2022-08-20T02:03:49.540Z,99059.2
2022-08-20T02:09:24.479Z,99054.2
2022-08-20T02:14:59.567Z,99050.4
2022-08-20T02:20:34.148Z,99045.6
2022-08-20T02:26:08.935Z,99043.8
2022-08-20T02:32:34.621Z,99043.6
2022-08-20T02:38:10.221Z,99041
2022-08-20T02:44:06.703Z,99039.4
2022-08-20T02:49:39.544Z,99043
2022-08-20T02:55:28.751Z,99047.1
2022-08-20T03:01:04.258Z,99041.8
2022-08-20T03:06:39.592Z,99038.9
2022-08-20T03:12:14.457Z,99039.9
2022-08-20T03:17:49.409Z,99035.1
2022-08-20T03:23:24.930Z,99035.9
2022-08-20T03:28:59.676Z,99032.7
2022-08-20T03:34:34.953Z,99032.4
2022-08-20T03:40:10.714Z,99027.8
2022-08-20T03:45:46.128Z,99028.8
2022-08-20T03:51:21.039Z,99030.3
2022-08-20T03:56:55.904Z,99026.9
2022-08-20T04:02:30.553Z,99019.2
2022-08-20T04:08:05.498Z,99017.3
2022-08-20T04:13:44.676Z,99018
2022-08-20T04:19:19.677Z,99023
2022-08-20T04:24:54.541Z,99027.6
2022-08-20T04:30:29.565Z,99026.3
2022-08-20T04:36:04.490Z,99025.7
2022-08-20T04:41:39.610Z,99022.5
2022-08-20T04:47:14.313Z,99022.7
2022-08-20T04:52:49.096Z,99025
2022-08-20T04:58:25.018Z,99031.4
2022-08-20T05:04:00.017Z,99027.8
2022-08-20T05:09:44.588Z,99030.7
2022-08-20T05:15:20.401Z,99031
2022-08-20T05:20:55.209Z,99030.4
2022-08-20T05:26:30.032Z,99036.2
2022-08-20T05:32:04.953Z,99039.7
2022-08-20T05:37:39.620Z,99040.4
2022-08-20T05:43:36.467Z,99046.3
2022-08-20T05:49:09.067Z,99047.9
2022-08-20T05:54:43.895Z,99048.8
2022-08-20T06:00:27.713Z,99057.7
2022-08-20T06:06:04.116Z,99054.8
2022-08-20T06:12:22.575Z,99056.5
2022-08-20T06:18:01.686Z,99054.7
2022-08-20T06:24:01.787Z,99051.7
2022-08-20T06:29:37.994Z,99045.6
2022-08-20T06:35:20.355Z,99046.6
2022-08-20T06:40:56.323Z,99042.9
2022-08-20T06:46:31.117Z,99039.1
2022-08-20T06:52:06.025Z,99034.9
2022-08-20T06:57:40.696Z,99033.2
2022-08-20T07:03:15.445Z,99032.9
2022-08-20T07:08:50.469Z,99030.1
2022-08-20T07:14:25.324Z,99026.7
2022-08-20T07:20:00.496Z,99026.5
2022-08-20T07:25:35.130Z,99027.6
2022-08-20T07:31:16.852Z,99029.7
2022-08-20T07:36:56.005Z,99021.5
2022-08-20T07:42:53.762Z,99021.7
2022-08-20T07:48:32.685Z,99013.4
2022-08-20T07:54:08.028Z,99011.2
2022-08-20T07:59:46.448Z,99011.5
2022-08-20T08:05:21.300Z,99009.6
2022-08-20T08:10:56.230Z,99003.8
2022-08-20T08:16:31.957Z,99000.8
2022-08-20T08:22:16.227Z,99004.7
2022-08-20T08:27:51.326Z,99011.5
2022-08-20T08:33:26.269Z,99014.2
2022-08-20T08:39:01.265Z,99015.7
2022-08-20T08:44:57.836Z,99017.8
2022-08-20T08:50:55.327Z,99023.3
2022-08-20T08:56:31.841Z,99017.6
2022-08-20T09:02:11.153Z,99016.5
2022-08-20T09:07:55.861Z,99014.4
2022-08-20T09:13:30.541Z,99016.4
2022-08-20T09:19:05.636Z,99014.9
2022-08-20T09:24:40.499Z,99008.2
2022-08-20T09:30:18.474Z,99008.9
2022-08-20T09:35:55.200Z,99007.9
2022-08-20T09:41:30.328Z,99006.8
2022-08-20T09:47:08.113Z,99007.8
2022-08-20T09:52:44.009Z,99004.5
2022-08-20T09:58:19.873Z,99002.3
2022-08-20T10:03:54.913Z,98993.9
2022-08-20T10:09:30.359Z,99001.9
2022-08-20T10:15:06.164Z,98995.7
2022-08-20T10:20:40.951Z,98990.3
2022-08-20T10:26:15.811Z,98991.3
2022-08-20T10:31:51.549Z,98988.4
2022-08-20T10:37:26.721Z,98981.1
2022-08-20T10:43:23.432Z,98974.3
2022-08-20T10:48:56.184Z,98971.6
2022-08-20T10:54:31.008Z,98965.3
2022-08-20T11:00:05.781Z,98963.6
2022-08-20T11:05:40.737Z,98961.8
2022-08-20T11:11:16.809Z,98960.1
2022-08-20T11:16:51.679Z,98954.2
2022-08-20T11:22:26.506Z,98952.9
2022-08-20T11:28:02.596Z,98948.5
2022-08-20T11:33:37.738Z,98944.7
2022-08-20T11:39:13.561Z,98941.6
2022-08-20T11:45:10.289Z,98939
2022-08-20T11:50:44.336Z,98928.4
2022-08-20T11:56:20.117Z,98923.3
2022-08-20T12:02:07.918Z,98914
2022-08-20T12:07:55.762Z,98907.7
2022-08-20T12:13:49.758Z,98900.4
2022-08-20T12:19:24.799Z,98905.6
2022-08-20T12:24:59.482Z,98895.9
2022-08-20T12:30:34.631Z,98890.6
2022-08-20T12:36:10.413Z,98890.5
2022-08-20T12:42:07.146Z,98877.1
2022-08-20T12:47:45.595Z,98877.7
2022-08-20T12:53:21.453Z,98873.6
2022-08-20T12:58:56.389Z,98874.6
2022-08-20T13:04:31.260Z,98874.4
2022-08-20T13:10:06.866Z,98870.2
2022-08-20T13:15:41.867Z,98867.9
2022-08-20T13:21:24.554Z,98858.3
2022-08-20T13:27:00.711Z,98853.4
2022-08-20T13:32:35.386Z,98848.6
2022-08-20T13:38:10.379Z,98848.4
2022-08-20T13:44:07.004Z,98841
2022-08-20T13:49:40.021Z,98842.4
2022-08-20T13:55:24.270Z,98841.7
2022-08-20T14:01:00.221Z,98834.7
2022-08-20T14:06:35.540Z,98825.3
2022-08-20T14:12:10.293Z,98820.7
2022-08-20T14:17:45.224Z,98808.3
2022-08-20T14:23:20.059Z,98802.2
2022-08-20T14:28:55.125Z,98796.8
2022-08-20T14:34:29.955Z,98793.5
2022-08-20T14:40:06.398Z,98787
2022-08-20T14:45:46.694Z,98786.7
2022-08-20T14:51:21.673Z,98784.7
2022-08-20T14:57:02.550Z,98782.7
2022-08-20T15:02:37.455Z,98775.8
2022-08-20T15:08:16.233Z,98773.7
2022-08-20T15:13:54.019Z,98767.9
2022-08-20T15:19:29.430Z,98769.8
2022-08-20T15:25:04.719Z,98764.8
2022-08-20T15:30:41.168Z,98757.9
2022-08-20T15:36:16.089Z,98757
2022-08-20T15:42:12.881Z,98748.2
2022-08-20T15:47:45.750Z,98746.1
2022-08-20T15:53:22.708Z,98746.5
2022-08-20T15:58:57.572Z,98748.2
2022-08-20T16:04:32.268Z,98744.1
2022-08-20T16:10:10.090Z,98737.9
2022-08-20T16:15:50.779Z,98735.3
2022-08-20T16:21:26.054Z,98734.8
2022-08-20T16:27:22.892Z,98731.5
2022-08-20T16:32:58.767Z,98727
2022-08-20T16:38:33.753Z,98722
2022-08-20T16:44:30.688Z,98722
2022-08-20T16:50:04.561Z,98725.7
2022-08-20T16:55:39.346Z,98723.5
2022-08-20T17:01:16.363Z,98721.3
2022-08-20T17:06:53.521Z,98729.2
2022-08-20T17:12:29.897Z,98738.3
2022-08-20T17:18:04.705Z,98733.4
2022-08-20T17:23:57.266Z,98725.6
2022-08-20T17:29:32.131Z,98726
2022-08-20T17:35:06.838Z,98723.6
2022-08-20T17:40:41.493Z,98722.3
2022-08-20T17:46:16.103Z,98714.4
2022-08-20T17:51:50.829Z,98718
2022-08-20T17:57:26.793Z,98710.4
2022-08-20T18:03:01.590Z,98714.6
2022-08-20T18:08:36.474Z,98711.7
2022-08-20T18:14:11.110Z,98716.9
2022-08-20T18:19:45.914Z,98708.3
2022-08-20T18:25:21.121Z,98710.3
2022-08-20T18:30:58.266Z,98718.4
2022-08-20T18:36:33.196Z,98728.6
2022-08-20T18:42:29.769Z,98731.1
2022-08-20T18:48:02.359Z,98725.6
2022-08-20T18:53:37.042Z,98723.1
2022-08-20T18:59:11.943Z,98717.2
2022-08-20T19:05:02.747Z,98711.3
2022-08-20T19:10:40.906Z,98712
2022-08-20T19:16:26.862Z,98716.3
2022-08-20T19:22:01.578Z,98713.4
2022-08-20T19:27:36.288Z,98712.9
2022-08-20T19:33:44.627Z,98703.4
2022-08-20T19:39:26.313Z,98716.2
2022-08-20T19:45:27.900Z,98732.9
2022-08-20T19:51:06.527Z,98732.4
2022-08-20T19:56:42.990Z,98727
2022-08-20T20:02:23.673Z,98722.9
2022-08-20T20:08:03.596Z,98733.5
2022-08-20T20:13:40.564Z,98724.8
2022-08-20T20:19:28.900Z,98733.2
2022-08-20T20:25:12.118Z,98725.8
2022-08-20T20:30:55.735Z,98733.9
2022-08-20T20:36:34.733Z,98740.3
2022-08-20T20:42:31.403Z,98747.1
2022-08-20T20:48:05.457Z,98750.2
2022-08-20T20:53:57.176Z,98742.2
2022-08-20T20:59:39.404Z,98738.3
2022-08-20T21:05:18.009Z,98743.5
2022-08-20T21:11:23.246Z,98754.3
2022-08-20T21:16:57.950Z,98752
2022-08-20T21:22:36.605Z,98745.1
2022-08-20T21:28:12.222Z,98748.9
2022-08-20T21:33:47.094Z,98751.7
2022-08-20T21:39:22.810Z,98756.5
2022-08-20T21:45:21.118Z,98752.8
2022-08-20T21:50:53.824Z,98748.6
2022-08-20T21:56:32.407Z,98752.7
2022-08-20T22:02:07.211Z,98752.4
2022-08-20T22:07:42.070Z,98760.1
2022-08-20T22:13:27.436Z,98764.8
2022-08-20T22:19:16.847Z,98768.5
2022-08-20T22:24:51.727Z,98779.9
2022-08-20T22:30:26.545Z,98780.7
2022-08-20T22:36:04.668Z,98788.8
2022-08-20T22:42:00.987Z,98789.4
2022-08-20T22:47:33.608Z,98790.5
2022-08-20T22:53:13.697Z,98792.6
2022-08-20T22:58:51.235Z,98797.1
2022-08-20T23:04:28.410Z,98796.1
2022-08-20T23:10:03.698Z,98793.9
2022-08-20T23:15:45.934Z,98796.5
2022-08-20T23:21:21.946Z,98793
2022-08-20T23:26:56.609Z,98803.9
2022-08-20T23:32:31.286Z,98805.5
2022-08-20T23:38:06.971Z,98804.8
2022-08-20T23:44:03.623Z,98803.2
2022-08-20T23:49:37.471Z,98802.4
2022-08-20T23:55:13.130Z,98802.9
